createdAt,value
2023-04-18T00:00:34.089Z,9.61
2023-04-18T00:03:04.329Z,9.66
2023-04-18T00:05:33.242Z,9.66
2023-04-18T00:08:03.106Z,9.56
2023-04-18T00:10:31.452Z,9.35
2023-04-18T00:13:00.575Z,9.28
2023-04-18T00:15:29.525Z,9.19
2023-04-18T00:17:58.343Z,9.18
2023-04-18T00:20:27.240Z,9.29
2023-04-18T00:22:56.650Z,9.29
2023-04-18T00:25:26.646Z,9.33
2023-04-18T00:27:54.949Z,9.40
2023-04-18T00:30:23.383Z,9.37
2023-04-18T00:32:51.861Z,9.30
2023-04-18T00:35:20.932Z,9.13
2023-04-18T00:37:49.323Z,9.15
2023-04-18T00:40:17.700Z,9.25
2023-04-18T00:42:47.307Z,9.32
2023-04-18T00:45:15.774Z,9.30
2023-04-18T00:47:44.247Z,9.35
2023-04-18T00:50:13.921Z,9.40
2023-04-18T00:52:42.712Z,9.42
2023-04-18T00:55:11.955Z,9.47
2023-04-18T00:57:40.269Z,9.32
2023-04-18T01:00:11.309Z,9.15
2023-04-18T01:02:41.777Z,9.09
2023-04-18T01:05:10.303Z,9.21
2023-04-18T01:07:40.897Z,9.34
2023-04-18T01:10:10.430Z,9.22
2023-04-18T01:12:38.989Z,9.15
2023-04-18T01:15:09.974Z,9.11
2023-04-18T01:17:38.649Z,8.93
2023-04-18T01:20:08.516Z,8.91
2023-04-18T01:22:36.838Z,8.90
2023-04-18T01:25:10.701Z,8.80
2023-04-18T01:27:40.237Z,8.72
2023-04-18T01:30:10.136Z,8.71
2023-04-18T01:32:38.518Z,8.75
2023-04-18T01:35:07.820Z,8.79
2023-04-18T01:37:36.037Z,8.82
2023-04-18T01:40:04.846Z,8.71
2023-04-18T01:42:34.768Z,8.78
2023-04-18T01:45:03.200Z,8.88
2023-04-18T01:47:32.224Z,8.81
2023-04-18T01:50:00.625Z,8.86
2023-04-18T01:52:28.915Z,8.88
2023-04-18T01:54:57.180Z,8.90
2023-04-18T01:57:25.651Z,8.95
2023-04-18T01:59:56.417Z,9.00
2023-04-18T02:02:24.952Z,8.78
2023-04-18T02:04:53.439Z,8.82
2023-04-18T02:07:21.738Z,8.81
2023-04-18T02:09:50.067Z,8.80
2023-04-18T02:12:18.392Z,8.79
2023-04-18T02:14:46.680Z,8.76
2023-04-18T02:17:16.557Z,8.83
2023-04-18T02:19:44.999Z,8.78
2023-04-18T02:22:13.289Z,8.72
2023-04-18T02:24:41.650Z,8.78
2023-04-18T02:27:10.066Z,8.72
2023-04-18T02:29:38.408Z,8.84
2023-04-18T02:32:08.333Z,8.77
2023-04-18T02:34:39.601Z,8.67
2023-04-18T02:37:07.892Z,8.71
2023-04-18T02:39:36.193Z,8.90
2023-04-18T02:42:04.739Z,9.03
2023-04-18T02:44:33.160Z,8.96
2023-04-18T02:47:01.696Z,8.90
2023-04-18T02:49:30.241Z,8.86
2023-04-18T02:52:00.225Z,8.96
2023-04-18T02:54:28.602Z,9.07
2023-04-18T02:56:57.185Z,9.14
2023-04-18T02:59:25.702Z,9.14
2023-04-18T03:01:54.003Z,9.20
2023-04-18T03:04:23.434Z,9.26
2023-04-18T03:06:51.891Z,9.29
2023-04-18T03:09:21.585Z,9.36
2023-04-18T03:11:49.994Z,9.22
2023-04-18T03:14:18.462Z,9.08
2023-04-18T03:16:46.787Z,9.10
2023-04-18T03:19:15.160Z,9.13
2023-04-18T03:21:43.534Z,9.16
2023-04-18T03:24:12.326Z,9.16
2023-04-18T03:26:42.318Z,9.02
2023-04-18T03:29:10.634Z,8.98
2023-04-18T03:31:39.028Z,9.14
2023-04-18T03:34:07.504Z,9.28
2023-04-18T03:36:36.867Z,9.48
2023-04-18T03:39:05.329Z,9.55
2023-04-18T03:41:33.709Z,9.50
2023-04-18T03:44:03.412Z,9.45
2023-04-18T03:46:31.828Z,9.52
2023-04-18T03:49:00.256Z,9.67
2023-04-18T03:51:28.781Z,9.69
2023-04-18T03:53:57.139Z,9.48
2023-04-18T03:56:25.657Z,9.27
2023-04-18T03:58:53.907Z,9.29
2023-04-18T04:01:23.652Z,9.37
2023-04-18T04:03:52.860Z,9.55
2023-04-18T04:06:21.548Z,9.77
2023-04-18T04:08:50.823Z,9.99
2023-04-18T04:11:19.341Z,10.11
2023-04-18T04:13:47.666Z,10.21
2023-04-18T04:16:16.007Z,10.35
2023-04-18T04:18:45.876Z,10.42
2023-04-18T04:21:14.284Z,10.58
2023-04-18T04:23:43.038Z,10.82
2023-04-18T04:26:11.472Z,10.97
2023-04-18T04:28:40.253Z,11.08
2023-04-18T04:31:10.533Z,11.12
2023-04-18T04:33:41.580Z,11.24
2023-04-18T04:36:16.713Z,11.41
2023-04-18T04:38:47.507Z,11.36
2023-04-18T04:41:16.638Z,11.21
2023-04-18T04:43:46.776Z,11.26
2023-04-18T04:46:15.787Z,11.12
2023-04-18T04:48:44.214Z,11.07
2023-04-18T04:51:14.014Z,11.03
2023-04-18T04:53:42.429Z,10.98
2023-04-18T04:56:11.242Z,11.03
2023-04-18T04:58:39.579Z,11.11
2023-04-18T05:01:09.311Z,11.09
2023-04-18T05:03:37.817Z,11.11
2023-04-18T05:06:08.219Z,11.15
2023-04-18T05:08:38.224Z,11.19
2023-04-18T05:11:07.090Z,11.31
2023-04-18T05:13:36.141Z,11.35
2023-04-18T05:16:04.926Z,11.46
2023-04-18T05:18:34.928Z,11.46
2023-04-18T05:21:03.460Z,11.41
2023-04-18T05:23:32.064Z,11.47
2023-04-18T05:26:01.928Z,11.42
2023-04-18T05:28:30.344Z,11.46
2023-04-18T05:31:01.610Z,11.34
2023-04-18T05:33:30.398Z,11.41
2023-04-18T05:35:59.242Z,11.38
2023-04-18T05:38:27.704Z,11.44
2023-04-18T05:40:57.276Z,11.50
2023-04-18T05:43:27.248Z,11.65
2023-04-18T05:45:57.887Z,11.60
2023-04-18T05:48:26.457Z,11.72
2023-04-18T05:50:54.865Z,11.75
2023-04-18T05:53:23.361Z,11.87
2023-04-18T05:55:51.783Z,12.06
2023-04-18T05:58:20.151Z,12.09
2023-04-18T06:00:49.828Z,12.18
2023-04-18T06:03:18.261Z,12.03
2023-04-18T06:05:47.008Z,11.93
2023-04-18T06:08:15.462Z,11.79
2023-04-18T06:10:43.858Z,11.68
2023-04-18T06:13:12.499Z,11.75
2023-04-18T06:15:40.911Z,11.72
2023-04-18T06:18:11.696Z,11.72
2023-04-18T06:20:58.741Z,11.72
2023-04-18T06:23:45.234Z,11.78
2023-04-18T06:26:33.000Z,11.85
2023-04-18T06:29:01.425Z,11.89
2023-04-18T06:31:29.957Z,12.01
2023-04-18T06:33:59.825Z,12.15
2023-04-18T06:36:28.172Z,12.26
2023-04-18T06:38:56.541Z,12.42
2023-04-18T06:41:24.829Z,12.57
2023-04-18T06:44:03.365Z,12.73
2023-04-18T06:46:33.058Z,12.85
2023-04-18T06:49:04.191Z,12.97
2023-04-18T06:51:33.788Z,13.22
2023-04-18T06:54:02.736Z,13.68
2023-04-18T06:56:31.200Z,14.21
2023-04-18T06:58:59.628Z,15.24
2023-04-18T07:01:28.074Z,15.83
2023-04-18T07:03:56.652Z,17.01
2023-04-18T07:06:27.036Z,18.70
2023-04-18T07:09:00.138Z,19.53
2023-04-18T07:11:28.733Z,18.96
2023-04-18T07:13:57.215Z,18.40
2023-04-18T07:16:25.649Z,17.97
2023-04-18T07:18:54.036Z,17.69
2023-04-18T07:21:24.047Z,18.42
2023-04-18T07:23:53.861Z,17.95
2023-04-18T07:26:22.210Z,19.52
2023-04-18T07:28:50.812Z,21.06
2023-04-18T07:31:19.791Z,21.14
2023-04-18T07:33:48.208Z,22.31
2023-04-18T07:36:16.487Z,21.84
2023-04-18T07:38:46.493Z,21.85
2023-04-18T07:41:16.260Z,19.82
2023-04-18T07:43:47.058Z,18.83
2023-04-18T07:46:15.434Z,19.16
2023-04-18T07:48:43.832Z,19.12
2023-04-18T07:51:12.797Z,20.47
